sensor_id;sensor_type;location;lat;lon;timestamp;pressure;altitude;pressure_sealevel;temperature;humidity
25420;BME280;13354;48.174;11.566;2023-09-30T00:00:00;96464.59;;;19.21;64.37
25420;BME280;13354;48.174;11.566;2023-09-30T00:02:25;96467.81;;;19.12;64.71
25420;BME280;13354;48.174;11.566;2023-09-30T00:04:51;96473.56;;;19.15;65.21
25420;BME280;13354;48.174;11.566;2023-09-30T00:07:17;96471.84;;;19.02;64.97
25420;BME280;13354;48.174;11.566;2023-09-30T00:09:42;96469.84;;;18.98;65.43
25420;BME280;13354;48.174;11.566;2023-09-30T00:12:08;96470.66;;;18.98;65.31
25420;BME280;13354;48.174;11.566;2023-09-30T00:14:33;96469.47;;;19.13;64.86
25420;BME280;13354;48.174;11.566;2023-09-30T00:16:59;96470.78;;;19.03;65.04
25420;BME280;13354;48.174;11.566;2023-09-30T00:19:25;96463.81;;;19.02;65.03
25420;BME280;13354;48.174;11.566;2023-09-30T00:21:51;96477.97;;;18.91;65.19
25420;BME280;13354;48.174;11.566;2023-09-30T00:24:16;96483.13;;;18.93;65.41
25420;BME280;13354;48.174;11.566;2023-09-30T00:26:41;96479.97;;;18.96;65.23
25420;BME280;13354;48.174;11.566;2023-09-30T00:29:07;96484.31;;;18.97;65.25
25420;BME280;13354;48.174;11.566;2023-09-30T00:31:32;96492.88;;;18.87;65.55
25420;BME280;13354;48.174;11.566;2023-09-30T00:33:57;96479.41;;;18.75;65.82
25420;BME280;13354;48.174;11.566;2023-09-30T00:36:23;96488.88;;;18.78;65.81
25420;BME280;13354;48.174;11.566;2023-09-30T00:38:48;96485.84;;;18.68;66.33
25420;BME280;13354;48.174;11.566;2023-09-30T00:41:14;96490.63;;;18.66;66.30
25420;BME280;13354;48.174;11.566;2023-09-30T00:43:39;96473.78;;;18.58;66.62
25420;BME280;13354;48.174;11.566;2023-09-30T00:48:49;96488.22;;;18.57;66.69
25420;BME280;13354;48.174;11.566;2023-09-30T00:51:14;96482.50;;;18.54;66.82
25420;BME280;13354;48.174;11.566;2023-09-30T00:53:40;96487.91;;;18.47;67.17
25420;BME280;13354;48.174;11.566;2023-09-30T00:56:06;96486.81;;;18.55;67.05
25420;BME280;13354;48.174;11.566;2023-09-30T00:58:33;96492.03;;;18.50;67.11
25420;BME280;13354;48.174;11.566;2023-09-30T01:00:59;96485.41;;;18.52;67.19
25420;BME280;13354;48.174;11.566;2023-09-30T01:03:25;96492.91;;;18.44;67.60
25420;BME280;13354;48.174;11.566;2023-09-30T01:05:50;96499.75;;;18.40;67.71
25420;BME280;13354;48.174;11.566;2023-09-30T01:08:17;96494.91;;;18.48;67.48
25420;BME280;13354;48.174;11.566;2023-09-30T01:10:43;96491.94;;;18.38;68.06
25420;BME280;13354;48.174;11.566;2023-09-30T01:13:09;96505.63;;;18.48;67.66
25420;BME280;13354;48.174;11.566;2023-09-30T01:15:34;96504.06;;;18.41;68.00
25420;BME280;13354;48.174;11.566;2023-09-30T01:18:02;96510.03;;;18.43;68.18
25420;BME280;13354;48.174;11.566;2023-09-30T01:20:27;96495.88;;;18.35;68.18
25420;BME280;13354;48.174;11.566;2023-09-30T01:22:53;96499.75;;;18.40;68.40
25420;BME280;13354;48.174;11.566;2023-09-30T01:25:20;96488.22;;;18.39;68.34
25420;BME280;13354;48.174;11.566;2023-09-30T01:27:46;96486.34;;;18.40;68.39
25420;BME280;13354;48.174;11.566;2023-09-30T01:30:12;96473.63;;;18.35;68.69
25420;BME280;13354;48.174;11.566;2023-09-30T01:32:39;96480.78;;;18.41;68.51
25420;BME280;13354;48.174;11.566;2023-09-30T01:35:05;96483.00;;;18.44;68.46
25420;BME280;13354;48.174;11.566;2023-09-30T01:37:30;96492.09;;;18.43;68.64
25420;BME280;13354;48.174;11.566;2023-09-30T01:39:56;96491.94;;;18.38;68.74
25420;BME280;13354;48.174;11.566;2023-09-30T01:42:21;96492.97;;;18.37;68.93
25420;BME280;13354;48.174;11.566;2023-09-30T01:44:46;96496.88;;;18.41;69.06
25420;BME280;13354;48.174;11.566;2023-09-30T01:47:12;96493.25;;;18.29;69.31
25420;BME280;13354;48.174;11.566;2023-09-30T01:49:37;96498.63;;;18.29;69.52
25420;BME280;13354;48.174;11.566;2023-09-30T01:52:03;96492.38;;;18.35;69.27
25420;BME280;13354;48.174;11.566;2023-09-30T01:54:28;96498.47;;;18.24;69.68
25420;BME280;13354;48.174;11.566;2023-09-30T01:56:54;96491.69;;;18.21;69.73
25420;BME280;13354;48.174;11.566;2023-09-30T01:59:19;96500.81;;;18.14;70.17
25420;BME280;13354;48.174;11.566;2023-09-30T02:01:44;96493.09;;;18.24;69.81
25420;BME280;13354;48.174;11.566;2023-09-30T02:04:11;96496.28;;;18.14;70.04
25420;BME280;13354;48.174;11.566;2023-09-30T02:06:38;96492.19;;;18.12;70.36
25420;BME280;13354;48.174;11.566;2023-09-30T02:09:03;96484.50;;;18.15;70.16
25420;BME280;13354;48.174;11.566;2023-09-30T02:11:29;96496.94;;;18.09;70.77
25420;BME280;13354;48.174;11.566;2023-09-30T02:13:55;96493.25;;;18.04;70.91
25420;BME280;13354;48.174;11.566;2023-09-30T02:16:21;96484.63;;;18.02;71.15
25420;BME280;13354;48.174;11.566;2023-09-30T02:18:46;96491.47;;;17.98;71.23
25420;BME280;13354;48.174;11.566;2023-09-30T02:21:12;96495.63;;;17.94;71.74
25420;BME280;13354;48.174;11.566;2023-09-30T02:23:38;96498.50;;;17.92;71.60
25420;BME280;13354;48.174;11.566;2023-09-30T02:26:03;96490.03;;;17.95;71.67
25420;BME280;13354;48.174;11.566;2023-09-30T02:28:29;96491.28;;;17.93;71.89
25420;BME280;13354;48.174;11.566;2023-09-30T02:30:58;96495.84;;;17.92;71.83
25420;BME280;13354;48.174;11.566;2023-09-30T02:33:23;96491.28;;;17.93;72.01
25420;BME280;13354;48.174;11.566;2023-09-30T02:35:51;96497.91;;;17.90;72.25
25420;BME280;13354;48.174;11.566;2023-09-30T02:38:16;96492.06;;;18.00;71.76
25420;BME280;13354;48.174;11.566;2023-09-30T02:40:44;96500.72;;;18.02;71.66
25420;BME280;13354;48.174;11.566;2023-09-30T02:43:12;96499.00;;;18.07;71.57
25420;BME280;13354;48.174;11.566;2023-09-30T02:45:37;96486.22;;;18.09;71.46
25420;BME280;13354;48.174;11.566;2023-09-30T02:48:03;96489.56;;;18.05;71.50
25420;BME280;13354;48.174;11.566;2023-09-30T02:50:29;96488.66;;;18.11;71.36
25420;BME280;13354;48.174;11.566;2023-09-30T02:52:54;96489.19;;;18.01;71.74
25420;BME280;13354;48.174;11.566;2023-09-30T02:55:20;96487.09;;;18.03;71.42
25420;BME280;13354;48.174;11.566;2023-09-30T02:57:45;96488.50;;;18.06;71.63
25420;BME280;13354;48.174;11.566;2023-09-30T03:00:12;96491.34;;;18.11;71.42
25420;BME280;13354;48.174;11.566;2023-09-30T03:02:55;96494.75;;;18.00;71.76
25420;BME280;13354;48.174;11.566;2023-09-30T03:05:21;96493.38;;;17.91;72.19
25420;BME280;13354;48.174;11.566;2023-09-30T03:07:47;96497.22;;;18.01;71.96
25420;BME280;13354;48.174;11.566;2023-09-30T03:10:13;96484.91;;;17.94;72.22
25420;BME280;13354;48.174;11.566;2023-09-30T03:12:45;96491.53;;;17.91;72.31
25420;BME280;13354;48.174;11.566;2023-09-30T03:15:10;96489.28;;;17.88;72.31
25420;BME280;13354;48.174;11.566;2023-09-30T03:17:36;96489.28;;;17.88;72.56
25420;BME280;13354;48.174;11.566;2023-09-30T03:20:03;96487.03;;;17.85;72.63
25420;BME280;13354;48.174;11.566;2023-09-30T03:22:34;96497.16;;;17.83;72.77
25420;BME280;13354;48.174;11.566;2023-09-30T03:25:01;96493.66;;;17.82;72.73
25420;BME280;13354;48.174;11.566;2023-09-30T03:27:26;96493.28;;;17.72;72.80
25420;BME280;13354;48.174;11.566;2023-09-30T03:29:51;96498.25;;;17.75;72.83
25420;BME280;13354;48.174;11.566;2023-09-30T03:32:17;96504.13;;;17.84;72.28
25420;BME280;13354;48.174;11.566;2023-09-30T03:34:42;96500.00;;;17.88;72.09
25420;BME280;13354;48.174;11.566;2023-09-30T03:37:11;96514.69;;;17.79;72.51
25420;BME280;13354;48.174;11.566;2023-09-30T03:39:37;96502.56;;;17.76;72.46
25420;BME280;13354;48.174;11.566;2023-09-30T03:42:03;96511.31;;;17.90;71.45
25420;BME280;13354;48.174;11.566;2023-09-30T03:44:28;96510.50;;;17.90;71.45
25420;BME280;13354;48.174;11.566;2023-09-30T03:46:54;96496.22;;;17.96;71.44
25420;BME280;13354;48.174;11.566;2023-09-30T03:49:19;96499.13;;;17.94;71.45
25420;BME280;13354;48.174;11.566;2023-09-30T03:51:45;96492.72;;;17.95;71.44
25420;BME280;13354;48.174;11.566;2023-09-30T03:54:11;96492.50;;;17.97;71.43
25420;BME280;13354;48.174;11.566;2023-09-30T03:56:37;96498.13;;;17.89;71.64
25420;BME280;13354;48.174;11.566;2023-09-30T03:59:04;96503.06;;;17.92;71.52
25420;BME280;13354;48.174;11.566;2023-09-30T04:01:29;96505.78;;;17.85;71.88
25420;BME280;13354;48.174;11.566;2023-09-30T04:03:56;96497.03;;;17.96;71.45
25420;BME280;13354;48.174;11.566;2023-09-30T04:06:22;96512.19;;;17.84;72.09
25420;BME280;13354;48.174;11.566;2023-09-30T04:08:47;96505.34;;;17.88;71.86
25420;BME280;13354;48.174;11.566;2023-09-30T04:11:13;96512.34;;;17.89;71.89
25420;BME280;13354;48.174;11.566;2023-09-30T04:13:44;96505.78;;;17.85;72.04
25420;BME280;13354;48.174;11.566;2023-09-30T04:16:10;96500.66;;;17.83;72.27
25420;BME280;13354;48.174;11.566;2023-09-30T04:18:35;96505.19;;;17.83;72.42
25420;BME280;13354;48.174;11.566;2023-09-30T04:21:01;96490.84;;;17.96;71.86
25420;BME280;13354;48.174;11.566;2023-09-30T04:23:27;96500.59;;;17.90;71.99
25420;BME280;13354;48.174;11.566;2023-09-30T04:25:52;96508.09;;;18.06;71.61
25420;BME280;13354;48.174;11.566;2023-09-30T04:28:18;96507.63;;;17.84;72.70
25420;BME280;13354;48.174;11.566;2023-09-30T04:30:47;96505.88;;;17.97;71.95
25420;BME280;13354;48.174;11.566;2023-09-30T04:33:12;96492.28;;;17.98;71.90
25420;BME280;13354;48.174;11.566;2023-09-30T04:35:38;96506.41;;;18.12;71.23
25420;BME280;13354;48.174;11.566;2023-09-30T04:38:04;96506.53;;;17.92;71.71
25420;BME280;13354;48.174;11.566;2023-09-30T04:40:30;96515.75;;;18.03;71.63
25420;BME280;13354;48.174;11.566;2023-09-30T04:42:55;96521.00;;;17.91;72.04
25420;BME280;13354;48.174;11.566;2023-09-30T04:45:24;96512.41;;;17.82;72.18
25420;BME280;13354;48.174;11.566;2023-09-30T04:47:54;96514.69;;;17.79;72.30
25420;BME280;13354;48.174;11.566;2023-09-30T04:50:21;96526.00;;;17.74;72.83
25420;BME280;13354;48.174;11.566;2023-09-30T04:52:47;96525.03;;;17.69;73.08
25420;BME280;13354;48.174;11.566;2023-09-30T04:55:13;96532.44;;;17.67;73.18
25420;BME280;13354;48.174;11.566;2023-09-30T04:57:44;96520.91;;;17.66;73.31
25420;BME280;13354;48.174;11.566;2023-09-30T05:00:14;96518.63;;;17.70;73.08
25420;BME280;13354;48.174;11.566;2023-09-30T05:02:40;96532.66;;;17.65;73.43
25420;BME280;13354;48.174;11.566;2023-09-30T05:05:05;96530.66;;;17.60;73.50
25420;BME280;13354;48.174;11.566;2023-09-30T05:07:32;96536.59;;;17.62;73.22
25420;BME280;13354;48.174;11.566;2023-09-30T05:09:57;96530.00;;;17.65;73.42
25420;BME280;13354;48.174;11.566;2023-09-30T05:12:23;96537.06;;;17.53;73.62
25420;BME280;13354;48.174;11.566;2023-09-30T05:14:48;96548.38;;;17.55;73.67
25420;BME280;13354;48.174;11.566;2023-09-30T05:17:14;96546.75;;;17.54;73.69
25420;BME280;13354;48.174;11.566;2023-09-30T05:19:39;96557.44;;;17.54;73.54
25420;BME280;13354;48.174;11.566;2023-09-30T05:22:05;96555.03;;;17.46;73.89
25420;BME280;13354;48.174;11.566;2023-09-30T05:24:30;96546.38;;;17.44;74.24
25420;BME280;13354;48.174;11.566;2023-09-30T05:26:55;96550.69;;;17.45;74.28
25420;BME280;13354;48.174;11.566;2023-09-30T05:29:21;96553.38;;;17.45;74.20
25420;BME280;13354;48.174;11.566;2023-09-30T05:31:47;96538.88;;;17.59;73.92
25420;BME280;13354;48.174;11.566;2023-09-30T05:34:12;96538.88;;;17.59;73.60
25420;BME280;13354;48.174;11.566;2023-09-30T05:36:38;96541.16;;;17.55;73.72
25420;BME280;13354;48.174;11.566;2023-09-30T05:39:03;96558.91;;;17.50;74.08
25420;BME280;13354;48.174;11.566;2023-09-30T05:41:30;96543.88;;;17.49;74.20
25420;BME280;13354;48.174;11.566;2023-09-30T05:43:55;96553.97;;;17.53;73.83
25420;BME280;13354;48.174;11.566;2023-09-30T05:46:21;96555.16;;;17.57;73.80
25420;BME280;13354;48.174;11.566;2023-09-30T05:48:47;96561.50;;;17.63;73.55
25420;BME280;13354;48.174;11.566;2023-09-30T05:51:12;96580.41;;;17.75;72.75
25420;BME280;13354;48.174;11.566;2023-09-30T05:53:41;96586.19;;;17.72;73.03
25420;BME280;13354;48.174;11.566;2023-09-30T05:56:07;96582.31;;;17.68;73.21
25420;BME280;13354;48.174;11.566;2023-09-30T05:58:32;96584.19;;;17.60;73.40
25420;BME280;13354;48.174;11.566;2023-09-30T06:00:58;96579.28;;;17.57;73.90
25420;BME280;13354;48.174;11.566;2023-09-30T06:03:25;96578.19;;;17.65;73.34
25420;BME280;13354;48.174;11.566;2023-09-30T06:05:50;96576.94;;;17.68;73.35
25420;BME280;13354;48.174;11.566;2023-09-30T06:08:16;96569.72;;;17.75;73.08
25420;BME280;13354;48.174;11.566;2023-09-30T06:10:42;96580.09;;;17.58;73.41
25420;BME280;13354;48.174;11.566;2023-09-30T06:13:08;96585.00;;;17.68;73.05
25420;BME280;13354;48.174;11.566;2023-09-30T06:15:34;96581.28;;;17.69;73.38
25420;BME280;13354;48.174;11.566;2023-09-30T06:18:01;96574.91;;;17.63;72.98
25420;BME280;13354;48.174;11.566;2023-09-30T06:20:29;96580.88;;;17.65;72.37
25420;BME280;13354;48.174;11.566;2023-09-30T06:22:56;96580.88;;;17.65;72.32
25420;BME280;13354;48.174;11.566;2023-09-30T06:25:22;96582.09;;;17.69;72.04
25420;BME280;13354;48.174;11.566;2023-09-30T06:27:49;96589.09;;;17.63;72.41
25420;BME280;13354;48.174;11.566;2023-09-30T06:30:16;96594.66;;;17.69;72.40
25420;BME280;13354;48.174;11.566;2023-09-30T06:32:42;96598.97;;;17.76;71.83
25420;BME280;13354;48.174;11.566;2023-09-30T06:35:08;96609.25;;;17.79;71.91
25420;BME280;13354;48.174;11.566;2023-09-30T06:37:38;96626.38;;;17.72;72.32
25420;BME280;13354;48.174;11.566;2023-09-30T06:40:08;96624.28;;;17.74;72.10
25420;BME280;13354;48.174;11.566;2023-09-30T06:42:35;96626.34;;;17.78;71.96
25420;BME280;13354;48.174;11.566;2023-09-30T06:45:01;96612.75;;;17.80;71.66
25420;BME280;13354;48.174;11.566;2023-09-30T06:47:27;96615.44;;;17.80;71.76
25420;BME280;13354;48.174;11.566;2023-09-30T06:49:52;96613.59;;;17.67;72.03
25420;BME280;13354;48.174;11.566;2023-09-30T06:52:18;96613.56;;;17.74;72.33
25420;BME280;13354;48.174;11.566;2023-09-30T06:54:45;96619.75;;;17.81;71.77
25420;BME280;13354;48.174;11.566;2023-09-30T06:57:10;96622.16;;;17.89;71.52
25420;BME280;13354;48.174;11.566;2023-09-30T06:59:35;96631.59;;;17.98;71.63
25420;BME280;13354;48.174;11.566;2023-09-30T07:02:01;96621.72;;;17.99;71.31
25420;BME280;13354;48.174;11.566;2023-09-30T07:04:26;96619.16;;;18.10;70.74
25420;BME280;13354;48.174;11.566;2023-09-30T07:06:55;96624.72;;;18.16;70.72
25420;BME280;13354;48.174;11.566;2023-09-30T07:09:20;96639.19;;;18.08;70.27
25420;BME280;13354;48.174;11.566;2023-09-30T07:11:46;96646.84;;;18.04;70.59
25420;BME280;13354;48.174;11.566;2023-09-30T07:14:11;96639.84;;;17.97;70.97
25420;BME280;13354;48.174;11.566;2023-09-30T07:16:37;96631.19;;;18.01;70.67
25420;BME280;13354;48.174;11.566;2023-09-30T07:19:03;96638.44;;;17.94;70.66
25420;BME280;13354;48.174;11.566;2023-09-30T07:21:28;96643.81;;;17.88;70.95
25420;BME280;13354;48.174;11.566;2023-09-30T07:23:54;96638.44;;;17.94;70.82
25420;BME280;13354;48.174;11.566;2023-09-30T07:26:25;96645.81;;;17.99;70.92
25420;BME280;13354;48.174;11.566;2023-09-30T07:28:51;96645.78;;;18.05;70.53
25420;BME280;13354;48.174;11.566;2023-09-30T07:31:16;96638.19;;;18.02;70.79
25420;BME280;13354;48.174;11.566;2023-09-30T07:33:42;96640.16;;;18.14;70.50
25420;BME280;13354;48.174;11.566;2023-09-30T07:36:07;96656.72;;;18.04;70.49
25420;BME280;13354;48.174;11.566;2023-09-30T07:38:32;96668.50;;;17.96;70.81
25420;BME280;13354;48.174;11.566;2023-09-30T07:41:00;96670.50;;;18.07;70.25
25420;BME280;13354;48.174;11.566;2023-09-30T07:43:25;96668.97;;;18.25;70.16
25420;BME280;13354;48.174;11.566;2023-09-30T07:45:53;96669.81;;;18.19;69.80
25420;BME280;13354;48.174;11.566;2023-09-30T07:48:19;96666.28;;;18.25;69.64
25420;BME280;13354;48.174;11.566;2023-09-30T07:50:44;96660.06;;;18.31;69.13
25420;BME280;13354;48.174;11.566;2023-09-30T07:53:10;96664.13;;;18.40;68.89
25420;BME280;13354;48.174;11.566;2023-09-30T07:55:37;96667.63;;;18.41;68.90
25420;BME280;13354;48.174;11.566;2023-09-30T07:58:02;96678.22;;;18.29;69.37
25420;BME280;13354;48.174;11.566;2023-09-30T08:00:28;96685.88;;;18.57;68.56
25420;BME280;13354;48.174;11.566;2023-09-30T08:02:54;96678.66;;;18.57;68.19
25420;BME280;13354;48.174;11.566;2023-09-30T08:05:19;96690.41;;;18.56;68.37
25420;BME280;13354;48.174;11.566;2023-09-30T08:07:45;96689.78;;;18.54;68.21
25420;BME280;13354;48.174;11.566;2023-09-30T08:10:11;96687.53;;;18.51;68.34
25420;BME280;13354;48.174;11.566;2023-09-30T08:12:41;96690.97;;;18.65;67.43
25420;BME280;13354;48.174;11.566;2023-09-30T08:15:07;96687.59;;;18.76;67.17
25420;BME280;13354;48.174;11.566;2023-09-30T08:17:33;96680.00;;;18.67;67.95
25420;BME280;13354;48.174;11.566;2023-09-30T08:19:59;96680.81;;;18.74;67.38
25420;BME280;13354;48.174;11.566;2023-09-30T08:22:24;96671.94;;;18.67;67.09
25420;BME280;13354;48.174;11.566;2023-09-30T08:24:53;96681.28;;;18.64;67.57
25420;BME280;13354;48.174;11.566;2023-09-30T08:27:19;96675.69;;;18.66;67.36
25420;BME280;13354;48.174;11.566;2023-09-30T08:29:44;96669.63;;;18.77;67.00
25420;BME280;13354;48.174;11.566;2023-09-30T08:32:09;96673.59;;;18.74;67.12
25420;BME280;13354;48.174;11.566;2023-09-30T08:34:35;96679.97;;;18.98;66.80
25420;BME280;13354;48.174;11.566;2023-09-30T08:37:00;96685.66;;;19.52;65.74
25420;BME280;13354;48.174;11.566;2023-09-30T08:39:27;96677.94;;;20.11;62.88
25420;BME280;13354;48.174;11.566;2023-09-30T08:41:55;96706.31;;;19.88;62.21
25420;BME280;13354;48.174;11.566;2023-09-30T08:44:20;96710.84;;;20.06;61.94
25420;BME280;13354;48.174;11.566;2023-09-30T08:46:46;96704.72;;;19.99;62.40
25420;BME280;13354;48.174;11.566;2023-09-30T08:49:13;96707.16;;;19.89;62.12
25420;BME280;13354;48.174;11.566;2023-09-30T08:51:39;96710.13;;;19.62;63.00
25420;BME280;13354;48.174;11.566;2023-09-30T08:54:05;96715.69;;;19.67;62.87
25420;BME280;13354;48.174;11.566;2023-09-30T08:56:31;96720.72;;;19.57;63.53
25420;BME280;13354;48.174;11.566;2023-09-30T08:59:01;96702.28;;;19.61;62.56
25420;BME280;13354;48.174;11.566;2023-09-30T09:01:27;96697.78;;;19.54;62.50
25420;BME280;13354;48.174;11.566;2023-09-30T09:03:54;96698.78;;;19.42;63.47
25420;BME280;13354;48.174;11.566;2023-09-30T09:06:24;96685.94;;;19.44;63.57
25420;BME280;13354;48.174;11.566;2023-09-30T09:08:50;96673.16;;;19.94;62.95
25420;BME280;13354;48.174;11.566;2023-09-30T09:11:17;96668.47;;;20.50;61.40
25420;BME280;13354;48.174;11.566;2023-09-30T09:13:53;96678.50;;;20.73;59.48
25420;BME280;13354;48.174;11.566;2023-09-30T09:16:22;96684.97;;;21.07;59.12
25420;BME280;13354;48.174;11.566;2023-09-30T09:18:48;96679.94;;;21.58;58.32
25420;BME280;13354;48.174;11.566;2023-09-30T09:21:19;96686.66;;;21.72;57.38
25420;BME280;13354;48.174;11.566;2023-09-30T09:23:49;96681.69;;;21.92;55.88
25420;BME280;13354;48.174;11.566;2023-09-30T09:26:30;96698.59;;;21.88;55.79
25420;BME280;13354;48.174;11.566;2023-09-30T09:28:57;96698.09;;;22.03;55.35
25420;BME280;13354;48.174;11.566;2023-09-30T09:31:25;96694.94;;;21.94;54.73
25420;BME280;13354;48.174;11.566;2023-09-30T09:33:51;96700.81;;;21.79;55.40
25420;BME280;13354;48.174;11.566;2023-09-30T09:36:17;96698.63;;;21.64;55.63
25420;BME280;13354;48.174;11.566;2023-09-30T09:38:51;96701.56;;;21.63;55.34
25420;BME280;13354;48.174;11.566;2023-09-30T09:41:20;96697.69;;;21.23;56.23
25420;BME280;13354;48.174;11.566;2023-09-30T09:43:48;96689.84;;;20.98;57.48
25420;BME280;13354;48.174;11.566;2023-09-30T09:46:16;96681.28;;;20.66;57.19
25420;BME280;13354;48.174;11.566;2023-09-30T09:48:45;96664.44;;;20.71;56.99
25420;BME280;13354;48.174;11.566;2023-09-30T09:51:12;96654.50;;;20.83;56.01
25420;BME280;13354;48.174;11.566;2023-09-30T09:53:39;96651.47;;;20.91;55.69
25420;BME280;13354;48.174;11.566;2023-09-30T09:56:08;96645.94;;;21.10;56.59
25420;BME280;13354;48.174;11.566;2023-09-30T09:58:36;96645.19;;;21.61;55.67
25420;BME280;13354;48.174;11.566;2023-09-30T10:01:05;96644.38;;;21.61;56.03
25420;BME280;13354;48.174;11.566;2023-09-30T10:03:31;96652.84;;;21.93;55.64
25420;BME280;13354;48.174;11.566;2023-09-30T10:05:58;96654.03;;;22.26;55.12
25420;BME280;13354;48.174;11.566;2023-09-30T10:08:41;96653.69;;;22.67;53.24
25420;BME280;13354;48.174;11.566;2023-09-30T10:11:08;96649.38;;;22.83;52.72
25420;BME280;13354;48.174;11.566;2023-09-30T10:13:53;96654.13;;;23.10;51.01
25420;BME280;13354;48.174;11.566;2023-09-30T10:19:11;96653.22;;;23.43;50.13
25420;BME280;13354;48.174;11.566;2023-09-30T10:21:38;96649.88;;;23.53;50.35
25420;BME280;13354;48.174;11.566;2023-09-30T10:35:21;96646.31;;;23.69;49.79
25420;BME280;13354;48.174;11.566;2023-09-30T10:37:47;96639.97;;;23.63;48.27
25420;BME280;13354;48.174;11.566;2023-09-30T10:40:30;96635.47;;;24.18;47.92
25420;BME280;13354;48.174;11.566;2023-09-30T10:42:58;96635.59;;;24.01;47.99
25420;BME280;13354;48.174;11.566;2023-09-30T10:50:55;96644.59;;;24.61;47.10
25420;BME280;13354;48.174;11.566;2023-09-30T10:53:22;96638.59;;;24.91;46.45
25420;BME280;13354;48.174;11.566;2023-09-30T10:55:54;96645.09;;;24.90;44.99
25420;BME280;13354;48.174;11.566;2023-09-30T10:58:20;96646.41;;;24.82;45.42
25420;BME280;13354;48.174;11.566;2023-09-30T11:00:53;96656.34;;;24.45;46.55
25420;BME280;13354;48.174;11.566;2023-09-30T11:03:20;96664.75;;;24.48;46.19
25420;BME280;13354;48.174;11.566;2023-09-30T11:05:47;96654.97;;;23.71;46.86
25420;BME280;13354;48.174;11.566;2023-09-30T11:08:15;96642.72;;;23.25;48.53
25420;BME280;13354;48.174;11.566;2023-09-30T11:10:52;96639.00;;;23.70;47.91
25420;BME280;13354;48.174;11.566;2023-09-30T11:13:18;96625.84;;;24.27;47.50
25420;BME280;13354;48.174;11.566;2023-09-30T11:15:44;96614.31;;;24.64;46.58
25420;BME280;13354;48.174;11.566;2023-09-30T11:18:17;96622.06;;;24.93;45.66
25420;BME280;13354;48.174;11.566;2023-09-30T11:20:43;96624.53;;;25.37;45.04
25420;BME280;13354;48.174;11.566;2023-09-30T11:23:10;96624.56;;;25.89;44.11
25420;BME280;13354;48.174;11.566;2023-09-30T11:25:37;96620.66;;;25.75;43.00
25420;BME280;13354;48.174;11.566;2023-09-30T11:28:16;96625.66;;;25.98;43.57
25420;BME280;13354;48.174;11.566;2023-09-30T11:30:58;96623.06;;;25.61;43.36
25420;BME280;13354;48.174;11.566;2023-09-30T11:33:24;96620.88;;;25.58;43.67
25420;BME280;13354;48.174;11.566;2023-09-30T11:36:04;96628.75;;;25.60;43.75
25420;BME280;13354;48.174;11.566;2023-09-30T11:38:31;96629.69;;;25.33;44.94
25420;BME280;13354;48.174;11.566;2023-09-30T11:41:03;96634.81;;;25.29;44.77
25420;BME280;13354;48.174;11.566;2023-09-30T11:43:30;96639.78;;;25.05;44.18
25420;BME280;13354;48.174;11.566;2023-09-30T11:46:08;96635.69;;;24.66;44.40
25420;BME280;13354;48.174;11.566;2023-09-30T11:48:37;96639.06;;;24.24;45.87
25420;BME280;13354;48.174;11.566;2023-09-30T11:51:03;96643.88;;;24.44;45.42
25420;BME280;13354;48.174;11.566;2023-09-30T11:53:34;96641.94;;;24.12;46.53
25420;BME280;13354;48.174;11.566;2023-09-30T11:56:00;96634.22;;;23.77;45.32
25420;BME280;13354;48.174;11.566;2023-09-30T11:58:28;96635.25;;;23.32;45.38
25420;BME280;13354;48.174;11.566;2023-09-30T12:00:54;96621.34;;;23.23;45.94
25420;BME280;13354;48.174;11.566;2023-09-30T12:03:22;96625.75;;;23.29;46.32
25420;BME280;13354;48.174;11.566;2023-09-30T12:05:48;96613.44;;;24.04;45.46
25420;BME280;13354;48.174;11.566;2023-09-30T12:08:13;96595.16;;;24.76;44.39
25420;BME280;13354;48.174;11.566;2023-09-30T12:10:39;96589.75;;;25.18;43.57
25420;BME280;13354;48.174;11.566;2023-09-30T12:13:05;96585.22;;;25.29;43.63
25420;BME280;13354;48.174;11.566;2023-09-30T12:15:30;96579.66;;;25.61;42.84
25420;BME280;13354;48.174;11.566;2023-09-30T12:17:55;96577.53;;;25.68;41.76
25420;BME280;13354;48.174;11.566;2023-09-30T12:20:21;96578.75;;;26.08;40.20
25420;BME280;13354;48.174;11.566;2023-09-30T12:22:46;96582.28;;;26.09;40.35
25420;BME280;13354;48.174;11.566;2023-09-30T12:25:11;96575.28;;;25.55;39.43
25420;BME280;13354;48.174;11.566;2023-09-30T12:27:37;96573.50;;;24.81;40.86
25420;BME280;13354;48.174;11.566;2023-09-30T12:30:05;96582.66;;;24.70;40.79
25420;BME280;13354;48.174;11.566;2023-09-30T12:32:31;96596.69;;;24.07;41.09
25420;BME280;13354;48.174;11.566;2023-09-30T12:34:57;96582.81;;;23.99;41.78
25420;BME280;13354;48.174;11.566;2023-09-30T12:37:22;96576.25;;;24.22;42.28
25420;BME280;13354;48.174;11.566;2023-09-30T12:39:47;96568.78;;;24.61;41.58
25420;BME280;13354;48.174;11.566;2023-09-30T12:42:13;96572.66;;;25.13;41.33
25420;BME280;13354;48.174;11.566;2023-09-30T12:44:39;96571.91;;;25.22;41.56
25420;BME280;13354;48.174;11.566;2023-09-30T12:47:05;96568.53;;;25.52;41.31
25420;BME280;13354;48.174;11.566;2023-09-30T12:49:31;96568.28;;;25.69;42.14
25420;BME280;13354;48.174;11.566;2023-09-30T12:51:56;96571.03;;;25.74;41.91
25420;BME280;13354;48.174;11.566;2023-09-30T12:54:24;96574.00;;;25.68;41.81
25420;BME280;13354;48.174;11.566;2023-09-30T12:56:49;96567.56;;;25.21;43.43
25420;BME280;13354;48.174;11.566;2023-09-30T12:59:16;96580.69;;;24.97;42.98
25420;BME280;13354;48.174;11.566;2023-09-30T13:01:43;96578.19;;;24.53;43.87
25420;BME280;13354;48.174;11.566;2023-09-30T13:04:09;96585.44;;;24.48;44.31
25420;BME280;13354;48.174;11.566;2023-09-30T13:06:34;96593.63;;;23.99;44.65
25420;BME280;13354;48.174;11.566;2023-09-30T13:09:01;96597.44;;;23.76;45.35